createdAt,value
2023-02-18T00:00:35.875Z,101951.81
2023-02-18T00:03:05.632Z,101944.06
2023-02-18T00:05:35.379Z,101947.56
2023-02-18T00:08:05.136Z,101941.53
2023-02-18T00:10:34.871Z,101931.75
2023-02-18T00:13:04.617Z,101925.59
2023-02-18T00:15:37.911Z,101920.34
2023-02-18T00:18:08.569Z,101914.13
2023-02-18T00:20:38.743Z,101912.41
2023-02-18T00:23:08.539Z,101898.38
2023-02-18T00:25:38.319Z,101894.84
2023-02-18T00:28:08.202Z,101897.56
2023-02-18T00:30:43.671Z,101885.16
2023-02-18T00:33:13.457Z,101891.25
2023-02-18T00:35:43.192Z,101884.19
2023-02-18T00:38:12.961Z,101885.00
2023-02-18T00:40:43.660Z,101878.75
2023-02-18T00:43:13.778Z,101889.16
2023-02-18T00:45:46.115Z,101875.97
2023-02-18T00:48:15.872Z,101874.06
2023-02-18T00:50:45.636Z,101866.09
2023-02-18T00:53:15.479Z,101860.78
2023-02-18T00:55:47.955Z,101858.16
2023-02-18T00:58:18.760Z,101858.97
2023-02-18T01:00:51.460Z,101866.84
2023-02-18T01:03:22.628Z,101864.94
2023-02-18T01:05:53.041Z,101864.88
2023-02-18T01:08:24.124Z,101867.38
2023-02-18T01:10:57.976Z,101871.63
2023-02-18T01:13:28.611Z,101872.34
2023-02-18T01:16:01.131Z,101866.22
2023-02-18T01:18:31.227Z,101868.84
2023-02-18T01:21:01.409Z,101873.19
2023-02-18T01:23:31.574Z,101864.50
2023-02-18T01:26:01.571Z,101852.22
2023-02-18T01:28:31.325Z,101858.25
2023-02-18T01:31:08.454Z,101843.34
2023-02-18T01:33:38.650Z,101849.38
2023-02-18T01:36:10.680Z,101842.50
2023-02-18T01:38:41.092Z,101845.13
2023-02-18T01:41:11.461Z,101846.88
2023-02-18T01:43:41.607Z,101843.34
2023-02-18T01:46:20.714Z,101851.22
2023-02-18T01:48:54.736Z,101846.06
2023-02-18T01:51:29.147Z,101840.09
2023-02-18T01:54:03.586Z,101818.28
2023-02-18T01:56:38.363Z,101818.41
2023-02-18T01:59:11.888Z,101802.72
2023-02-18T02:01:46.547Z,101794.97
2023-02-18T02:04:16.818Z,101784.53
2023-02-18T02:06:46.700Z,101782.03
2023-02-18T02:09:19.004Z,101782.19
2023-02-18T02:12:16.911Z,101791.94
2023-02-18T02:15:12.474Z,101768.44
2023-02-18T02:17:57.193Z,101772.97
2023-02-18T02:21:02.025Z,101764.25
2023-02-18T02:24:05.407Z,101767.88
2023-02-18T02:27:07.136Z,101778.47
2023-02-18T02:30:31.140Z,101773.28
2023-02-18T02:33:32.785Z,101758.63
2023-02-18T02:36:12.604Z,101746.41
2023-02-18T02:38:50.408Z,101741.34
2023-02-18T02:41:30.992Z,101739.69
2023-02-18T02:44:10.402Z,101723.22
2023-02-18T02:46:44.130Z,101718.13
2023-02-18T02:49:26.127Z,101716.59
2023-02-18T02:52:04.606Z,101693.94
2023-02-18T02:54:34.510Z,101687.97
2023-02-18T02:57:10.835Z,101672.41
2023-02-18T02:59:44.370Z,101672.56
2023-02-18T03:02:31.681Z,101679.84
2023-02-18T03:05:18.193Z,101680.84
2023-02-18T03:08:07.611Z,101684.44
2023-02-18T03:10:48.712Z,101674.75
2023-02-18T03:13:28.996Z,101669.50
2023-02-18T03:16:02.278Z,101660.75
2023-02-18T03:18:40.184Z,101649.34
2023-02-18T03:21:13.310Z,101644.91
2023-02-18T03:23:52.539Z,101655.50
2023-02-18T03:26:23.951Z,101663.47
2023-02-18T03:28:57.189Z,101664.25
2023-02-18T03:31:31.421Z,101665.09
2023-02-18T03:34:05.521Z,101658.13
2023-02-18T03:36:37.746Z,101651.13
2023-02-18T03:39:13.826Z,101646.88
2023-02-18T03:41:44.245Z,101643.34
2023-02-18T03:44:15.215Z,101629.34
2023-02-18T03:46:47.283Z,101613.41
2023-02-18T03:49:18.244Z,101605.53
2023-02-18T03:51:48.010Z,101609.00
2023-02-18T03:54:20.495Z,101601.03
2023-02-18T03:56:50.260Z,101616.78
2023-02-18T03:59:20.302Z,101622.94
2023-02-18T04:01:50.095Z,101614.09
2023-02-18T04:04:19.911Z,101618.50
2023-02-18T04:06:49.733Z,101610.47
2023-02-18T04:09:22.142Z,101606.06
2023-02-18T04:11:51.906Z,101606.06
2023-02-18T04:14:21.670Z,101595.56
2023-02-18T04:16:51.484Z,101590.38
2023-02-18T04:19:21.257Z,101592.09
2023-02-18T04:21:51.057Z,101583.34
2023-02-18T04:24:23.433Z,101592.94
2023-02-18T04:26:53.197Z,101584.09
2023-02-18T04:29:22.966Z,101571.78
2023-02-18T04:31:52.826Z,101558.66
2023-02-18T04:34:22.616Z,101552.59
2023-02-18T04:36:52.400Z,101552.66
2023-02-18T04:39:24.759Z,101537.75
2023-02-18T04:41:54.487Z,101528.00
2023-02-18T04:44:24.256Z,101516.63
2023-02-18T04:46:54.025Z,101509.63
2023-02-18T04:49:23.795Z,101503.50
2023-02-18T04:51:53.571Z,101488.50
2023-02-18T04:54:25.942Z,101484.88
2023-02-18T04:56:55.932Z,101480.28
2023-02-18T04:59:25.680Z,101464.41
2023-02-18T05:01:55.468Z,101460.00
2023-02-18T05:04:25.293Z,101453.91
2023-02-18T05:06:55.102Z,101436.44
2023-02-18T05:09:27.524Z,101419.16
2023-02-18T05:11:57.281Z,101423.72
2023-02-18T05:14:27.042Z,101410.81
2023-02-18T05:16:56.802Z,101407.53
2023-02-18T05:19:26.559Z,101407.69
2023-02-18T05:21:56.323Z,101402.66
2023-02-18T05:24:28.716Z,101408.06
2023-02-18T05:26:58.545Z,101406.41
2023-02-18T05:29:28.336Z,101401.16
2023-02-18T05:31:58.176Z,101395.91
2023-02-18T05:34:28.043Z,101396.75
2023-02-18T05:36:57.804Z,101388.94
2023-02-18T05:39:30.264Z,101375.88
2023-02-18T05:42:00.059Z,101366.38
2023-02-18T05:44:35.974Z,101361.13
2023-02-18T05:47:11.015Z,101361.16
2023-02-18T05:49:42.619Z,101354.19
2023-02-18T05:52:13.430Z,101352.50
2023-02-18T05:54:46.525Z,101338.53
2023-02-18T05:57:16.879Z,101341.16
2023-02-18T05:59:46.644Z,101345.66
2023-02-18T06:02:16.501Z,101330.88
2023-02-18T06:04:46.260Z,101321.19
2023-02-18T06:07:16.000Z,101317.75
2023-02-18T06:09:48.530Z,101319.53
2023-02-18T06:12:18.348Z,101302.88
2023-02-18T06:14:48.260Z,101294.19
2023-02-18T06:17:18.939Z,101288.03
2023-02-18T06:19:49.258Z,101286.25
2023-02-18T06:22:19.103Z,101284.44
2023-02-18T06:24:51.512Z,101283.63
2023-02-18T06:27:21.286Z,101281.13
2023-02-18T06:29:51.076Z,101279.41
2023-02-18T06:32:21.020Z,101282.91
2023-02-18T06:34:50.926Z,101275.97
2023-02-18T06:37:20.703Z,101264.63
2023-02-18T06:39:53.113Z,101265.66
2023-02-18T06:42:22.859Z,101267.47
2023-02-18T06:44:52.671Z,101255.31
2023-02-18T06:47:22.451Z,101254.56
2023-02-18T06:49:52.245Z,101255.44
2023-02-18T06:52:22.101Z,101245.97
2023-02-18T06:54:54.481Z,101239.06
2023-02-18T06:57:24.264Z,101236.63
2023-02-18T06:59:54.018Z,101224.59
2023-02-18T07:02:23.786Z,101226.53
2023-02-18T07:04:53.572Z,101219.75
2023-02-18T07:07:23.311Z,101210.34
2023-02-18T07:09:55.728Z,101215.81
2023-02-18T07:12:25.523Z,101209.81
2023-02-18T07:14:55.391Z,101212.66
2023-02-18T07:17:25.195Z,101211.97
2023-02-18T07:19:55.934Z,101196.31
2023-02-18T07:22:25.991Z,101189.41
2023-02-18T07:24:58.375Z,101186.00
2023-02-18T07:27:28.384Z,101181.69
2023-02-18T07:29:58.526Z,101180.91
2023-02-18T07:32:28.340Z,101191.56
2023-02-18T07:34:58.093Z,101189.88
2023-02-18T07:37:27.898Z,101198.69
2023-02-18T07:40:00.361Z,101194.44
2023-02-18T07:42:30.206Z,101197.97
2023-02-18T07:44:59.975Z,101193.56
2023-02-18T07:47:29.716Z,101178.75
2023-02-18T07:50:05.119Z,101171.88
2023-02-18T07:52:35.316Z,101180.66
2023-02-18T07:55:08.147Z,101178.94
2023-02-18T07:57:57.432Z,101176.31
2023-02-18T08:00:27.498Z,101170.22
2023-02-18T08:02:57.392Z,101178.97
2023-02-18T08:05:27.281Z,101179.88
2023-02-18T08:08:00.490Z,101173.72
2023-02-18T08:10:32.898Z,101183.44
2023-02-18T08:13:02.737Z,101176.50
2023-02-18T08:15:32.496Z,101167.69
2023-02-18T08:18:02.437Z,101169.34
2023-02-18T08:20:32.250Z,101178.97
2023-02-18T08:23:02.012Z,101180.72
2023-02-18T08:25:34.398Z,101187.75
2023-02-18T08:28:04.481Z,101178.03
2023-02-18T08:30:34.760Z,101181.41
2023-02-18T08:33:04.663Z,101184.91
2023-02-18T08:35:34.483Z,101175.06
2023-02-18T08:38:04.501Z,101177.72
2023-02-18T08:40:46.415Z,101175.94
2023-02-18T08:43:17.247Z,101193.38
2023-02-18T08:45:47.944Z,101163.56
2023-02-18T08:48:20.450Z,101177.47
2023-02-18T08:50:50.900Z,101171.25
2023-02-18T08:53:21.221Z,101176.44
2023-02-18T08:55:53.846Z,101172.91
2023-02-18T08:58:23.751Z,101173.69
2023-02-18T09:00:53.680Z,101164.84
2023-02-18T09:03:23.538Z,101169.16
2023-02-18T09:05:53.434Z,101160.31
2023-02-18T09:08:23.262Z,101176.00
2023-02-18T09:10:59.106Z,101173.38
2023-02-18T09:13:29.425Z,101155.81
2023-02-18T09:16:01.014Z,101171.50
2023-02-18T09:18:30.941Z,101188.16
2023-02-18T09:21:01.988Z,101177.72
2023-02-18T09:23:34.291Z,101169.78
2023-02-18T09:26:07.832Z,101190.78
2023-02-18T09:28:38.073Z,101189.97
2023-02-18T09:31:09.629Z,101186.38
2023-02-18T09:33:40.510Z,101197.00
2023-02-18T09:36:11.170Z,101193.56
2023-02-18T09:38:41.006Z,101193.56
2023-02-18T09:41:20.650Z,101186.63
2023-02-18T09:43:53.537Z,101199.75
2023-02-18T09:46:26.925Z,101183.19
2023-02-18T09:48:57.186Z,101187.59
2023-02-18T09:51:26.995Z,101189.53
2023-02-18T09:53:56.787Z,101197.59
2023-02-18T09:56:32.631Z,101192.47
2023-02-18T09:59:06.587Z,101183.81
2023-02-18T10:01:39.339Z,101198.72
2023-02-18T10:04:18.472Z,101170.78
2023-02-18T10:06:50.990Z,101177.84
2023-02-18T10:09:24.227Z,101185.88
2023-02-18T10:12:00.589Z,101193.78
2023-02-18T10:14:31.819Z,101202.59
2023-02-18T10:17:02.996Z,101193.94
2023-02-18T10:19:37.240Z,101189.56
2023-02-18T10:22:09.663Z,101191.47
2023-02-18T10:24:43.349Z,101192.47
2023-02-18T10:27:23.780Z,101205.81
2023-02-18T10:29:54.143Z,101205.03
2023-02-18T10:32:26.872Z,101199.88
2023-02-18T10:35:03.283Z,101208.84
2023-02-18T10:37:49.869Z,101202.91
2023-02-18T10:40:24.412Z,101195.22
2023-02-18T10:43:09.541Z,101219.97
2023-02-18T10:45:47.426Z,101216.66
2023-02-18T10:48:36.186Z,101215.88
2023-02-18T10:51:15.415Z,101209.84
2023-02-18T10:53:48.143Z,101217.03
2023-02-18T10:56:38.163Z,101217.25
2023-02-18T10:59:23.179Z,101235.78
2023-02-18T11:01:58.647Z,101219.28
2023-02-18T11:04:31.282Z,101201.84
2023-02-18T11:07:07.992Z,101235.44
2023-02-18T11:09:46.805Z,101232.91
2023-02-18T11:12:20.849Z,101243.47
2023-02-18T11:15:09.055Z,101228.66
2023-02-18T11:17:40.278Z,101240.13
2023-02-18T11:20:26.755Z,101241.13
2023-02-18T11:23:01.271Z,101252.63
2023-02-18T11:25:35.403Z,101235.22
2023-02-18T11:28:08.843Z,101249.41
2023-02-18T11:30:43.401Z,101257.53
2023-02-18T11:33:21.442Z,101254.16
2023-02-18T11:35:53.214Z,101263.03
2023-02-18T11:38:28.775Z,101247.41
2023-02-18T11:41:00.285Z,101258.81
2023-02-18T11:43:33.747Z,101260.56
2023-02-18T11:46:18.097Z,101259.00
2023-02-18T11:48:48.392Z,101271.31
2023-02-18T11:51:20.983Z,101267.91
2023-02-18T11:54:00.502Z,101265.25
2023-02-18T11:56:33.157Z,101272.34
2023-02-18T11:59:04.869Z,101276.81
2023-02-18T12:01:49.041Z,101283.16
2023-02-18T12:04:21.150Z,101277.09
2023-02-18T12:06:58.670Z,101293.97
2023-02-18T12:09:34.433Z,101288.03
2023-02-18T12:12:09.482Z,101280.28
2023-02-18T12:14:39.920Z,101296.13
2023-02-18T12:17:36.072Z,101276.91
2023-02-18T12:20:50.558Z,101293.69
2023-02-18T12:23:28.799Z,101289.25
2023-02-18T12:26:08.408Z,101297.22
2023-02-18T12:28:55.185Z,101315.53
2023-02-18T12:31:44.141Z,101301.47
2023-02-18T12:34:32.211Z,101300.59
2023-02-18T12:37:14.734Z,101302.59
2023-02-18T12:40:02.596Z,101300.00
2023-02-18T12:42:47.824Z,101308.09
2023-02-18T12:45:42.315Z,101304.88
2023-02-18T12:48:27.595Z,101328.75
2023-02-18T12:51:21.112Z,101334.03
2023-02-18T12:54:09.387Z,101333.97
2023-02-18T12:56:59.138Z,101331.22
2023-02-18T13:00:01.134Z,101335.53
2023-02-18T13:02:49.248Z,101342.56
2023-02-18T13:05:29.354Z,101340.78
2023-02-18T13:08:14.132Z,101331.94
2023-02-18T13:11:06.595Z,101343.25
2023-02-18T13:13:40.189Z,101349.25
2023-02-18T13:16:14.986Z,101332.59
2023-02-18T13:18:50.303Z,101348.69
2023-02-18T13:21:20.458Z,101355.22
2023-02-18T13:23:56.186Z,101351.91
2023-02-18T13:26:28.343Z,101360.69
2023-02-18T13:29:13.887Z,101359.94
2023-02-18T13:31:53.343Z,101365.16
2023-02-18T13:34:31.373Z,101363.31
2023-02-18T13:37:13.414Z,101363.34
2023-02-18T13:39:52.572Z,101358.13
2023-02-18T13:42:43.293Z,101374.84
2023-02-18T13:45:29.057Z,101364.25
2023-02-18T13:48:00.407Z,101351.81
2023-02-18T13:50:35.194Z,101373.50
2023-02-18T13:53:33.301Z,101367.94
2023-02-18T13:56:13.394Z,101373.06
2023-02-18T13:58:46.490Z,101367.59
2023-02-18T14:01:42.112Z,101371.13
2023-02-18T14:04:39.562Z,101366.69
2023-02-18T14:07:47.128Z,101373.59
2023-02-18T14:10:38.266Z,101376.16
2023-02-18T14:13:40.898Z,101376.03
2023-02-18T14:16:12.706Z,101383.00
2023-02-18T14:18:58.938Z,101383.78
2023-02-18T14:21:43.817Z,101388.94
2023-02-18T14:24:15.610Z,101402.00
2023-02-18T14:26:50.130Z,101393.19
2023-02-18T14:29:33.184Z,101398.47
2023-02-18T14:32:06.062Z,101401.88
2023-02-18T14:35:11.291Z,101404.38
2023-02-18T14:38:07.649Z,101409.53
2023-02-18T14:40:52.938Z,101414.78
2023-02-18T14:43:48.200Z,101429.78
2023-02-18T14:46:35.098Z,101429.63
2023-02-18T14:49:20.433Z,101414.50
2023-02-18T14:51:52.533Z,101419.69
2023-02-18T14:54:26.026Z,101432.81
2023-02-18T14:57:00.396Z,101437.19
2023-02-18T14:59:34.331Z,101436.34
2023-02-18T15:02:06.751Z,101446.69
2023-02-18T15:04:36.526Z,101447.44
2023-02-18T15:07:08.332Z,101457.97
2023-02-18T15:09:38.305Z,101456.09
2023-02-18T15:12:10.622Z,101454.09
2023-02-18T15:14:43.047Z,101442.56
2023-02-18T15:17:21.139Z,101452.13
2023-02-18T15:19:54.394Z,101452.84
2023-02-18T15:22:25.963Z,101462.25
2023-02-18T15:24:57.630Z,101463.03
2023-02-18T15:27:30.583Z,101463.81
2023-02-18T15:30:02.660Z,101456.50
2023-02-18T15:32:35.870Z,101470.38
2023-02-18T15:35:17.442Z,101478.19
2023-02-18T15:37:48.937Z,101471.97
2023-02-18T15:40:19.759Z,101477.16
2023-02-18T15:42:53.204Z,101475.22
2023-02-18T15:45:25.087Z,101487.44
2023-02-18T15:48:00.353Z,101486.59
2023-02-18T15:50:33.706Z,101487.28
2023-02-18T15:53:09.973Z,101484.59
2023-02-18T15:55:44.613Z,101484.41
2023-02-18T15:58:20.960Z,101490.47
2023-02-18T16:00:53.686Z,101493.94
2023-02-18T16:03:28.707Z,101505.38
2023-02-18T16:06:13.960Z,101501.00
2023-02-18T16:08:43.942Z,101498.31
2023-02-18T16:11:16.391Z,101503.59
2023-02-18T16:13:53.377Z,101508.72
2023-02-18T16:16:33.614Z,101504.22
2023-02-18T16:19:07.431Z,101509.31
2023-02-18T16:21:42.486Z,101503.94
2023-02-18T16:24:28.382Z,101502.91
2023-02-18T16:27:01.262Z,101502.72
2023-02-18T16:29:43.197Z,101503.47
2023-02-18T16:32:13.285Z,101506.88
2023-02-18T16:34:48.742Z,101520.09
2023-02-18T16:37:42.621Z,101515.72
2023-02-18T16:40:28.584Z,101517.47
2023-02-18T16:43:00.772Z,101518.16
2023-02-18T16:45:37.463Z,101512.81
2023-02-18T16:48:08.120Z,101517.09
2023-02-18T16:50:41.083Z,101522.22
2023-02-18T16:53:10.862Z,101530.81
2023-02-18T16:55:40.777Z,101523.69
2023-02-18T16:58:10.707Z,101534.13
2023-02-18T17:00:41.351Z,101543.63
2023-02-18T17:03:12.763Z,101534.75
2023-02-18T17:05:45.257Z,101544.47
2023-02-18T17:08:23.231Z,101550.63
2023-02-18T17:10:54.771Z,101547.09
2023-02-18T17:13:29.957Z,101542.72
2023-02-18T17:16:01.376Z,101545.47
2023-02-18T17:18:31.981Z,101543.56
2023-02-18T17:21:04.443Z,101544.34
2023-02-18T17:23:36.749Z,101548.53
2023-02-18T17:26:12.037Z,101550.19
2023-02-18T17:28:41.804Z,101550.94
2023-02-18T17:31:17.261Z,101562.38
2023-02-18T17:33:47.595Z,101566.72
2023-02-18T17:36:20.024Z,101570.25
2023-02-18T17:38:49.971Z,101563.19
2023-02-18T17:41:20.308Z,101572.13
2023-02-18T17:43:50.102Z,101577.41
2023-02-18T17:46:21.481Z,101581.72
2023-02-18T17:48:51.321Z,101583.47
2023-02-18T17:51:27.892Z,101587.97
2023-02-18T17:53:58.324Z,101580.91
2023-02-18T17:56:28.141Z,101582.66
2023-02-18T17:58:58.010Z,101575.66
2023-02-18T18:01:27.938Z,101577.41
2023-02-18T18:03:57.716Z,101582.78
2023-02-18T18:06:30.265Z,101587.28
2023-02-18T18:09:00.015Z,101596.97
2023-02-18T18:11:29.858Z,101595.31
2023-02-18T18:13:59.978Z,101585.69
2023-02-18T18:16:29.827Z,101597.31
2023-02-18T18:18:59.600Z,101594.81
2023-02-18T18:21:36.131Z,101586.97
2023-02-18T18:24:06.552Z,101596.69
2023-02-18T18:26:36.340Z,101592.09
2023-02-18T18:29:06.192Z,101594.69
2023-02-18T18:31:37.632Z,101603.31
2023-02-18T18:34:07.528Z,101604.94
2023-02-18T18:36:39.978Z,101604.84
2023-02-18T18:39:09.899Z,101604.78
2023-02-18T18:41:39.815Z,101602.97
2023-02-18T18:44:09.775Z,101605.47
2023-02-18T18:46:42.082Z,101608.00
2023-02-18T18:49:11.924Z,101605.16
2023-02-18T18:51:44.443Z,101604.25
2023-02-18T18:54:15.302Z,101606.84
2023-02-18T18:56:50.310Z,101608.53
2023-02-18T18:59:20.079Z,101605.91
2023-02-18T19:01:49.902Z,101601.59
2023-02-18T19:04:20.711Z,101602.47
2023-02-18T19:06:53.091Z,101593.75
2023-02-18T19:09:22.929Z,101604.25
2023-02-18T19:11:52.693Z,101600.81
2023-02-18T19:14:23.023Z,101603.38
2023-02-18T19:16:52.777Z,101599.75
2023-02-18T19:19:24.739Z,101595.25
2023-02-18T19:21:57.109Z,101592.50
2023-02-18T19:24:26.937Z,101593.38
2023-02-18T19:26:56.748Z,101587.22
2023-02-18T19:29:26.488Z,101581.00
2023-02-18T19:31:56.291Z,101573.81
2023-02-18T19:34:26.058Z,101578.16
2023-02-18T19:36:58.529Z,101578.22
2023-02-18T19:39:28.304Z,101585.22
2023-02-18T19:41:58.153Z,101576.34
2023-02-18T19:44:27.972Z,101581.53
2023-02-18T19:46:59.171Z,101576.22
2023-02-18T19:49:29.191Z,101575.31
2023-02-18T19:52:04.251Z,101572.75
2023-02-18T19:54:34.638Z,101565.84
2023-02-18T19:57:05.649Z,101547.38
2023-02-18T19:59:36.430Z,101561.56
2023-02-18T20:02:07.916Z,101566.06
2023-02-18T20:04:37.990Z,101557.44
2023-02-18T20:07:10.433Z,101565.38
2023-02-18T20:09:40.206Z,101557.56
2023-02-18T20:12:11.561Z,101565.47
2023-02-18T20:14:43.740Z,101568.09
2023-02-18T20:17:14.126Z,101579.50
2023-02-18T20:19:43.892Z,101575.13
2023-02-18T20:22:16.284Z,101584.00
2023-02-18T20:24:46.071Z,101570.84
2023-02-18T20:27:15.832Z,101567.41
2023-02-18T20:29:45.628Z,101564.78
2023-02-18T20:32:17.771Z,101563.06
2023-02-18T20:34:48.608Z,101564.78
2023-02-18T20:37:20.957Z,101571.81
2023-02-18T20:39:50.886Z,101560.41
2023-02-18T20:42:20.693Z,101556.06
2023-02-18T20:44:51.868Z,101544.69
2023-02-18T20:47:22.113Z,101542.84
2023-02-18T20:49:51.960Z,101550.72
2023-02-18T20:52:24.317Z,101549.06
2023-02-18T20:54:54.107Z,101556.16
2023-02-18T20:57:23.917Z,101558.78
2023-02-18T20:59:53.830Z,101554.41
2023-02-18T21:02:23.630Z,101552.59
2023-02-18T21:04:53.403Z,101544.69
2023-02-18T21:07:25.811Z,101528.94
2023-02-18T21:09:55.575Z,101529.91
2023-02-18T21:12:25.355Z,101526.47
2023-02-18T21:14:55.156Z,101522.09
2023-02-18T21:17:24.971Z,101521.25
2023-02-18T21:19:57.605Z,101515.19
2023-02-18T21:22:30.003Z,101515.25
2023-02-18T21:25:00.550Z,101515.34
2023-02-18T21:27:30.327Z,101512.78
2023-02-18T21:30:01.701Z,101512.78
2023-02-18T21:32:31.533Z,101505.84
2023-02-18T21:35:02.877Z,101506.78
2023-02-18T21:37:36.018Z,101504.19
2023-02-18T21:40:05.888Z,101506.94
2023-02-18T21:42:35.680Z,101497.31
2023-02-18T21:45:05.627Z,101488.59
2023-02-18T21:47:35.399Z,101485.91
2023-02-18T21:50:05.197Z,101475.38
2023-02-18T21:52:37.571Z,101483.31
2023-02-18T21:55:08.219Z,101478.06
2023-02-18T21:57:38.699Z,101469.38
2023-02-18T22:00:19.631Z,101470.25
2023-02-18T22:03:10.807Z,101477.31
2023-02-18T22:05:43.302Z,101480.78
2023-02-18T22:08:15.867Z,101479.88
2023-02-18T22:10:45.671Z,101472.97
2023-02-18T22:13:15.425Z,101469.50
2023-02-18T22:15:45.156Z,101469.50
2023-02-18T22:18:14.975Z,101461.53
2023-02-18T22:20:44.736Z,101458.00
2023-02-18T22:23:18.781Z,101457.03
2023-02-18T22:25:49.473Z,101462.25
2023-02-18T22:28:19.375Z,101460.34
2023-02-18T22:30:49.204Z,101453.22
2023-02-18T22:33:18.994Z,101454.03
2023-02-18T22:35:48.776Z,101461.91
2023-02-18T22:38:21.222Z,101459.28
2023-02-18T22:40:52.078Z,101463.66
2023-02-18T22:43:21.890Z,101453.00
2023-02-18T22:45:51.827Z,101451.13
2023-02-18T22:48:21.638Z,101446.56
2023-02-18T22:50:56.643Z,101434.19
2023-02-18T22:53:31.231Z,101444.69
2023-02-18T22:56:03.103Z,101432.41
2023-02-18T22:58:33.123Z,101427.94
2023-02-18T23:01:03.171Z,101417.44
2023-02-18T23:03:33.451Z,101423.63
2023-02-18T23:06:05.320Z,101428.94
2023-02-18T23:08:38.057Z,101427.13
2023-02-18T23:11:10.640Z,101414.69
2023-02-18T23:13:40.870Z,101426.03
2023-02-18T23:16:14.094Z,101418.97
2023-02-18T23:18:45.222Z,101413.69
2023-02-18T23:21:23.765Z,101418.03
2023-02-18T23:23:58.356Z,101422.34
2023-02-18T23:26:28.919Z,101419.59
2023-02-18T23:28:58.691Z,101419.59
2023-02-18T23:31:30.599Z,101413.44
2023-02-18T23:34:04.095Z,101428.38
2023-02-18T23:36:35.925Z,101434.34
2023-02-18T23:39:11.199Z,101430.72
2023-02-18T23:41:41.276Z,101428.84
2023-02-18T23:44:14.598Z,101427.13
2023-02-18T23:46:45.078Z,101426.22
2023-02-18T23:49:20.291Z,101422.63
2023-02-18T23:51:50.229Z,101425.22
2023-02-18T23:54:23.396Z,101425.13
2023-02-18T23:56:53.232Z,101426.84
2023-02-18T23:59:23.095Z,101425.97
